sensor_id;sensor_type;location;lat;lon;timestamp;pressure;altitude;pressure_sealevel;temperature;humidity
33404;BME280;19751;40.274;18.268;2024-01-27T00:01:36;101975.28;;;9.40;100.00
33404;BME280;19751;40.274;18.268;2024-01-27T00:04:02;101983.25;;;9.32;100.00
33404;BME280;19751;40.274;18.268;2024-01-27T00:06:27;101981.47;;;9.23;100.00
33404;BME280;19751;40.274;18.268;2024-01-27T00:08:53;101991.13;;;9.15;100.00
33404;BME280;19751;40.274;18.268;2024-01-27T00:11:19;101989.00;;;9.19;100.00
33404;BME280;19751;40.274;18.268;2024-01-27T00:13:45;101995.59;;;9.25;100.00
33404;BME280;19751;40.274;18.268;2024-01-27T00:16:11;102000.38;;;9.31;100.00
33404;BME280;19751;40.274;18.268;2024-01-27T00:18:37;101985.94;;;9.32;100.00
33404;BME280;19751;40.274;18.268;2024-01-27T00:21:04;101993.16;;;9.31;100.00
33404;BME280;19751;40.274;18.268;2024-01-27T00:23:30;102000.69;;;9.28;100.00
33404;BME280;19751;40.274;18.268;2024-01-27T00:25:55;101998.44;;;9.23;100.00
33404;BME280;19751;40.274;18.268;2024-01-27T00:28:22;101999.53;;;9.30;100.00
33404;BME280;19751;40.274;18.268;2024-01-27T00:30:47;101987.41;;;9.26;100.00
33404;BME280;19751;40.274;18.268;2024-01-27T00:33:13;102000.75;;;9.18;100.00
33404;BME280;19751;40.274;18.268;2024-01-27T00:35:38;101989.44;;;9.14;100.00
33404;BME280;19751;40.274;18.268;2024-01-27T00:38:04;101993.69;;;9.17;100.00
33404;BME280;19751;40.274;18.268;2024-01-27T00:40:29;101988.69;;;9.22;100.00
33404;BME280;19751;40.274;18.268;2024-01-27T00:42:55;101993.78;;;9.25;100.00
33404;BME280;19751;40.274;18.268;2024-01-27T00:45:21;101995.59;;;9.25;100.00
33404;BME280;19751;40.274;18.268;2024-01-27T00:47:49;102002.13;;;9.22;100.00
33404;BME280;19751;40.274;18.268;2024-01-27T00:50:15;102002.72;;;9.16;100.00
33404;BME280;19751;40.274;18.268;2024-01-27T00:52:40;102006.13;;;9.18;100.00
33404;BME280;19751;40.274;18.268;2024-01-27T00:55:06;101997.31;;;9.26;100.00
33404;BME280;19751;40.274;18.268;2024-01-27T00:57:32;102004.09;;;9.30;100.00
33404;BME280;19751;40.274;18.268;2024-01-27T00:59:58;101999.00;;;9.27;100.00
33404;BME280;19751;40.274;18.268;2024-01-27T01:02:23;101998.44;;;9.23;100.00
33404;BME280;19751;40.274;18.268;2024-01-27T01:04:49;102002.03;;;9.14;100.00
33404;BME280;19751;40.274;18.268;2024-01-27T01:07:15;102005.63;;;9.05;100.00
33404;BME280;19751;40.274;18.268;2024-01-27T01:09:40;102010.16;;;9.04;100.00
33404;BME280;19751;40.274;18.268;2024-01-27T01:12:06;102002.63;;;9.08;100.00
33404;BME280;19751;40.274;18.268;2024-01-27T01:14:31;102015.09;;;9.09;100.00
33404;BME280;19751;40.274;18.268;2024-01-27T01:16:57;102014.09;;;9.10;100.00
33404;BME280;19751;40.274;18.268;2024-01-27T01:19:23;102014.31;;;9.16;100.00
33404;BME280;19751;40.274;18.268;2024-01-27T01:21:49;102013.91;;;9.21;100.00
33404;BME280;19751;40.274;18.268;2024-01-27T01:24:14;102016.25;;;9.24;100.00
33404;BME280;19751;40.274;18.268;2024-01-27T01:26:40;102013.13;;;9.29;100.00
33404;BME280;19751;40.274;18.268;2024-01-27T01:29:05;102013.28;;;9.27;100.00
33404;BME280;19751;40.274;18.268;2024-01-27T01:31:31;102001.53;;;9.28;100.00
33404;BME280;19751;40.274;18.268;2024-01-27T01:33:57;102011.44;;;9.28;100.00
33404;BME280;19751;40.274;18.268;2024-01-27T01:36:23;102017.25;;;9.23;100.00
33404;BME280;19751;40.274;18.268;2024-01-27T01:38:48;102012.34;;;9.18;100.00
33404;BME280;19751;40.274;18.268;2024-01-27T01:41:14;102013.06;;;9.11;100.00
33404;BME280;19751;40.274;18.268;2024-01-27T01:43:40;102013.69;;;9.05;100.00
33404;BME280;19751;40.274;18.268;2024-01-27T01:46:05;102017.50;;;9.02;100.00
33404;BME280;19751;40.274;18.268;2024-01-27T01:48:31;102021.19;;;9.01;100.00
33404;BME280;19751;40.274;18.268;2024-01-27T01:50:58;102018.50;;;9.01;100.00
33404;BME280;19751;40.274;18.268;2024-01-27T01:53:24;102024.63;;;8.93;100.00
33404;BME280;19751;40.274;18.268;2024-01-27T01:55:49;102016.84;;;8.90;100.00
33404;BME280;19751;40.274;18.268;2024-01-27T01:58:15;102015.72;;;8.83;100.00
33404;BME280;19751;40.274;18.268;2024-01-27T02:00:42;102014.03;;;8.82;100.00
33404;BME280;19751;40.274;18.268;2024-01-27T02:03:12;102017.84;;;8.89;100.00
33404;BME280;19751;40.274;18.268;2024-01-27T02:05:38;102022.09;;;8.92;100.00
33404;BME280;19751;40.274;18.268;2024-01-27T02:08:04;102017.41;;;8.94;100.00
33404;BME280;19751;40.274;18.268;2024-01-27T02:10:30;102009.59;;;9.01;100.00
33404;BME280;19751;40.274;18.268;2024-01-27T02:13:12;102012.28;;;9.01;100.00
33404;BME280;19751;40.274;18.268;2024-01-27T02:15:42;102020.09;;;8.94;100.00
33404;BME280;19751;40.274;18.268;2024-01-27T02:18:08;102011.47;;;8.90;100.00
33404;BME280;19751;40.274;18.268;2024-01-27T02:20:33;102013.59;;;8.87;100.00
33404;BME280;19751;40.274;18.268;2024-01-27T02:22:59;102005.97;;;8.82;100.00
33404;BME280;19751;40.274;18.268;2024-01-27T02:25:24;101998.09;;;8.81;100.00
33404;BME280;19751;40.274;18.268;2024-01-27T02:27:50;102014.44;;;8.87;100.00
33404;BME280;19751;40.274;18.268;2024-01-27T02:30:16;102013.47;;;8.88;100.00
33404;BME280;19751;40.274;18.268;2024-01-27T02:32:41;102010.34;;;8.93;100.00
33404;BME280;19751;40.274;18.268;2024-01-27T02:35:07;102013.03;;;8.93;100.00
33404;BME280;19751;40.274;18.268;2024-01-27T02:37:33;102008.94;;;8.89;100.00
33404;BME280;19751;40.274;18.268;2024-01-27T02:39:58;101999.19;;;8.88;100.00
33404;BME280;19751;40.274;18.268;2024-01-27T02:42:24;102006.53;;;8.86;100.00
33404;BME280;19751;40.274;18.268;2024-01-27T02:44:50;101999.19;;;8.88;100.00
33404;BME280;19751;40.274;18.268;2024-01-27T02:47:15;102003.69;;;8.87;100.00
33404;BME280;19751;40.274;18.268;2024-01-27T02:49:41;102005.25;;;8.90;100.00
33404;BME280;19751;40.274;18.268;2024-01-27T02:52:06;101998.31;;;8.97;100.00
33404;BME280;19751;40.274;18.268;2024-01-27T02:54:32;101996.84;;;9.03;100.00
33404;BME280;19751;40.274;18.268;2024-01-27T02:56:58;101991.03;;;9.07;100.00
33404;BME280;19751;40.274;18.268;2024-01-27T02:59:23;101987.03;;;9.11;100.00
33404;BME280;19751;40.274;18.268;2024-01-27T03:01:49;101989.50;;;9.05;100.00
33404;BME280;19751;40.274;18.268;2024-01-27T03:04:14;101991.53;;;8.93;100.00
33404;BME280;19751;40.274;18.268;2024-01-27T03:06:40;101992.53;;;8.82;100.00
33404;BME280;19751;40.274;18.268;2024-01-27T03:09:05;101997.81;;;8.74;100.00
33404;BME280;19751;40.274;18.268;2024-01-27T03:11:31;102008.00;;;8.70;100.00
33404;BME280;19751;40.274;18.268;2024-01-27T03:13:57;102014.25;;;8.71;100.00
33404;BME280;19751;40.274;18.268;2024-01-27T03:16:22;102012.81;;;8.77;100.00
33404;BME280;19751;40.274;18.268;2024-01-27T03:18:48;102013.91;;;8.84;100.00
33404;BME280;19751;40.274;18.268;2024-01-27T03:21:13;102017.13;;;8.87;100.00
33404;BME280;19751;40.274;18.268;2024-01-27T03:23:39;102015.84;;;8.91;100.00
33404;BME280;19751;40.274;18.268;2024-01-27T03:26:04;102007.03;;;8.99;100.00
33404;BME280;19751;40.274;18.268;2024-01-27T03:28:30;101999.53;;;9.03;100.00
33404;BME280;19751;40.274;18.268;2024-01-27T03:30:56;102002.63;;;9.08;100.00
33404;BME280;19751;40.274;18.268;2024-01-27T03:33:21;102008.41;;;9.13;100.00
33404;BME280;19751;40.274;18.268;2024-01-27T03:35:48;102004.13;;;9.20;100.00
33404;BME280;19751;40.274;18.268;2024-01-27T03:38:13;101997.31;;;9.26;100.00
33404;BME280;19751;40.274;18.268;2024-01-27T03:40:39;102002.22;;;9.30;100.00
33404;BME280;19751;40.274;18.268;2024-01-27T03:43:05;102005.75;;;9.31;100.00
33404;BME280;19751;40.274;18.268;2024-01-27T03:45:30;102003.53;;;9.26;100.00
33404;BME280;19751;40.274;18.268;2024-01-27T03:47:56;101996.22;;;9.18;100.00
33404;BME280;19751;40.274;18.268;2024-01-27T03:50:22;101990.28;;;9.15;100.00
33404;BME280;19751;40.274;18.268;2024-01-27T03:52:48;101995.94;;;9.12;100.00
33404;BME280;19751;40.274;18.268;2024-01-27T03:55:14;101990.56;;;9.12;100.00
33404;BME280;19751;40.274;18.268;2024-01-27T03:57:39;101990.84;;;9.18;100.00
33404;BME280;19751;40.274;18.268;2024-01-27T04:00:05;102002.69;;;9.26;100.00
33404;BME280;19751;40.274;18.268;2024-01-27T04:02:31;102000.69;;;9.28;100.00
33404;BME280;19751;40.274;18.268;2024-01-27T04:04:57;102011.16;;;9.31;100.00
33404;BME280;19751;40.274;18.268;2024-01-27T04:07:22;102010.97;;;9.32;100.00
33404;BME280;19751;40.274;18.268;2024-01-27T04:09:48;102000.09;;;9.34;100.00
33404;BME280;19751;40.274;18.268;2024-01-27T04:12:13;101994.25;;;9.38;100.00
33404;BME280;19751;40.274;18.268;2024-01-27T04:14:39;101990.28;;;9.42;100.00
33404;BME280;19751;40.274;18.268;2024-01-27T04:17:04;102000.56;;;9.47;100.00
33404;BME280;19751;40.274;18.268;2024-01-27T04:19:30;101998.56;;;9.49;100.00
33404;BME280;19751;40.274;18.268;2024-01-27T04:21:55;102003.47;;;9.54;100.00
33404;BME280;19751;40.274;18.268;2024-01-27T04:24:21;101995.13;;;9.57;100.00
33404;BME280;19751;40.274;18.268;2024-01-27T04:26:47;101994.28;;;9.56;100.00
33404;BME280;19751;40.274;18.268;2024-01-27T04:29:13;102000.66;;;9.55;100.00
33404;BME280;19751;40.274;18.268;2024-01-27T04:31:41;102001.34;;;9.57;100.00
33404;BME280;19751;40.274;18.268;2024-01-27T04:34:07;101998.50;;;9.59;100.00
33404;BME280;19751;40.274;18.268;2024-01-27T04:36:33;101998.19;;;9.62;100.00
33404;BME280;19751;40.274;18.268;2024-01-27T04:38:58;101997.06;;;9.64;100.00
33404;BME280;19751;40.274;18.268;2024-01-27T04:41:24;101998.44;;;9.68;100.00
33404;BME280;19751;40.274;18.268;2024-01-27T04:43:49;102003.53;;;9.71;100.00
33404;BME280;19751;40.274;18.268;2024-01-27T04:46:15;102002.34;;;9.74;100.00
33404;BME280;19751;40.274;18.268;2024-01-27T04:48:41;102014.81;;;9.75;100.00
33404;BME280;19751;40.274;18.268;2024-01-27T04:51:06;102016.50;;;9.76;100.00
33404;BME280;19751;40.274;18.268;2024-01-27T04:53:32;102012.97;;;9.76;100.00
33404;BME280;19751;40.274;18.268;2024-01-27T04:55:58;102021.59;;;9.79;100.00
33404;BME280;19751;40.274;18.268;2024-01-27T04:58:23;102022.44;;;9.80;100.00
33404;BME280;19751;40.274;18.268;2024-01-27T05:00:49;102030.19;;;9.83;100.00
33404;BME280;19751;40.274;18.268;2024-01-27T05:03:14;102030.03;;;9.84;100.00
33404;BME280;19751;40.274;18.268;2024-01-27T05:05:41;102032.75;;;9.84;100.00
33404;BME280;19751;40.274;18.268;2024-01-27T05:08:08;102039.97;;;9.84;100.00
33404;BME280;19751;40.274;18.268;2024-01-27T05:10:34;102047.03;;;9.85;100.00
33404;BME280;19751;40.274;18.268;2024-01-27T05:13:00;102042.78;;;9.82;100.00
33404;BME280;19751;40.274;18.268;2024-01-27T05:15:25;102049.19;;;9.81;100.00
33404;BME280;19751;40.274;18.268;2024-01-27T05:17:51;102052.16;;;9.78;100.00
33404;BME280;19751;40.274;18.268;2024-01-27T05:20:17;102053.81;;;9.71;100.00
33404;BME280;19751;40.274;18.268;2024-01-27T05:22:43;102056.78;;;9.68;100.00
33404;BME280;19751;40.274;18.268;2024-01-27T05:25:09;102059.47;;;9.68;100.00
33404;BME280;19751;40.274;18.268;2024-01-27T05:27:39;102062.47;;;9.65;100.00
33404;BME280;19751;40.274;18.268;2024-01-27T05:30:06;102062.75;;;9.62;100.00
33404;BME280;19751;40.274;18.268;2024-01-27T05:32:32;102068.84;;;9.64;100.00
33404;BME280;19751;40.274;18.268;2024-01-27T05:34:57;102065.03;;;9.66;100.00
33404;BME280;19751;40.274;18.268;2024-01-27T05:37:23;102065.53;;;9.70;100.00
33404;BME280;19751;40.274;18.268;2024-01-27T05:39:48;102075.00;;;9.74;100.00
33404;BME280;19751;40.274;18.268;2024-01-27T05:42:14;102073.19;;;9.75;100.00
33404;BME280;19751;40.274;18.268;2024-01-27T05:44:40;102077.41;;;9.77;100.00
33404;BME280;19751;40.274;18.268;2024-01-27T05:47:06;102075.41;;;9.79;100.00
33404;BME280;19751;40.274;18.268;2024-01-27T05:49:32;102079.63;;;9.82;100.00
33404;BME280;19751;40.274;18.268;2024-01-27T05:51:58;102075.63;;;9.86;100.00
33404;BME280;19751;40.274;18.268;2024-01-27T05:54:24;102076.19;;;9.89;100.00
33404;BME280;19751;40.274;18.268;2024-01-27T05:56:50;102072.19;;;9.93;100.00
33404;BME280;19751;40.274;18.268;2024-01-27T05:59:15;102077.56;;;9.93;100.00
33404;BME280;19751;40.274;18.268;2024-01-27T06:01:41;102075.41;;;9.97;100.00
33404;BME280;19751;40.274;18.268;2024-01-27T06:04:08;102076.25;;;9.98;100.00
33404;BME280;19751;40.274;18.268;2024-01-27T06:06:34;102074.13;;;10.01;100.00
33404;BME280;19751;40.274;18.268;2024-01-27T06:09:03;102069.81;;;10.08;100.00
33404;BME280;19751;40.274;18.268;2024-01-27T06:11:29;102069.34;;;10.13;100.00
33404;BME280;19751;40.274;18.268;2024-01-27T06:13:55;102080.50;;;10.18;100.00
33404;BME280;19751;40.274;18.268;2024-01-27T06:16:21;102079.50;;;10.19;100.00
33404;BME280;19751;40.274;18.268;2024-01-27T06:18:47;102084.59;;;10.22;100.00
33404;BME280;19751;40.274;18.268;2024-01-27T06:21:12;102079.03;;;10.24;100.00
33404;BME280;19751;40.274;18.268;2024-01-27T06:23:38;102076.06;;;10.27;100.00
33404;BME280;19751;40.274;18.268;2024-01-27T06:26:07;102069.66;;;10.28;100.00
33404;BME280;19751;40.274;18.268;2024-01-27T06:28:33;102069.06;;;10.34;100.00
33404;BME280;19751;40.274;18.268;2024-01-27T06:31:00;102071.00;;;10.41;100.00
33404;BME280;19751;40.274;18.268;2024-01-27T06:33:26;102058.19;;;10.43;100.00
33404;BME280;19751;40.274;18.268;2024-01-27T06:35:52;102062.06;;;10.41;100.00
33404;BME280;19751;40.274;18.268;2024-01-27T06:38:17;102054.50;;;10.44;100.00
33404;BME280;19751;40.274;18.268;2024-01-27T06:40:43;102043.72;;;10.44;100.00
33404;BME280;19751;40.274;18.268;2024-01-27T06:43:11;102040.34;;;10.42;100.00
33404;BME280;19751;40.274;18.268;2024-01-27T06:45:37;102027.88;;;10.41;100.00
33404;BME280;19751;40.274;18.268;2024-01-27T06:48:04;102042.69;;;10.37;100.00
33404;BME280;19751;40.274;18.268;2024-01-27T06:50:30;102046.81;;;10.32;100.00
33404;BME280;19751;40.274;18.268;2024-01-27T06:52:55;102042.59;;;10.29;100.00
33404;BME280;19751;40.274;18.268;2024-01-27T06:55:21;102050.81;;;10.28;100.00
33404;BME280;19751;40.274;18.268;2024-01-27T06:57:47;102061.34;;;10.21;100.00
33404;BME280;19751;40.274;18.268;2024-01-27T07:00:13;102083.97;;;10.10;100.00
33404;BME280;19751;40.274;18.268;2024-01-27T07:02:42;102116.25;;;10.10;100.00
33404;BME280;19751;40.274;18.268;2024-01-27T07:05:08;102106.03;;;10.14;100.00
33404;BME280;19751;40.274;18.268;2024-01-27T07:07:34;102104.03;;;10.16;100.00
33404;BME280;19751;40.274;18.268;2024-01-27T07:10:00;102109.41;;;10.16;100.00
33404;BME280;19751;40.274;18.268;2024-01-27T07:12:25;102107.25;;;10.19;100.00
33404;BME280;19751;40.274;18.268;2024-01-27T07:14:52;102105.69;;;10.27;100.00
33404;BME280;19751;40.274;18.268;2024-01-27T07:17:18;102112.16;;;10.34;100.00
33404;BME280;19751;40.274;18.268;2024-01-27T07:19:43;102110.69;;;10.39;100.00
33404;BME280;19751;40.274;18.268;2024-01-27T07:22:09;102107.69;;;10.42;100.00
33404;BME280;19751;40.274;18.268;2024-01-27T07:24:35;102099.13;;;10.47;100.00
33404;BME280;19751;40.274;18.268;2024-01-27T07:27:01;102096.81;;;10.52;100.00
33404;BME280;19751;40.274;18.268;2024-01-27T07:29:27;102107.97;;;10.57;100.00
33404;BME280;19751;40.274;18.268;2024-01-27T07:31:53;102110.22;;;10.62;100.00
33404;BME280;19751;40.274;18.268;2024-01-27T07:34:19;102107.72;;;10.68;100.00
33404;BME280;19751;40.274;18.268;2024-01-27T07:36:45;102108.97;;;10.74;100.00
33404;BME280;19751;40.274;18.268;2024-01-27T07:39:11;102097.53;;;10.80;100.00
33404;BME280;19751;40.274;18.268;2024-01-27T07:41:41;102096.06;;;10.86;100.00
33404;BME280;19751;40.274;18.268;2024-01-27T07:44:13;102094.06;;;10.88;100.00
33404;BME280;19751;40.274;18.268;2024-01-27T07:46:39;102101.66;;;10.92;100.00
33404;BME280;19751;40.274;18.268;2024-01-27T07:49:09;102106.41;;;10.99;100.00
33404;BME280;19751;40.274;18.268;2024-01-27T07:51:38;102097.16;;;11.01;100.00
33404;BME280;19751;40.274;18.268;2024-01-27T07:54:03;102109.16;;;11.07;100.00
33404;BME280;19751;40.274;18.268;2024-01-27T07:56:29;102112.25;;;11.12;100.00
33404;BME280;19751;40.274;18.268;2024-01-27T07:58:55;102112.75;;;11.15;100.00
33404;BME280;19751;40.274;18.268;2024-01-27T08:01:20;102114.13;;;11.19;100.00
33404;BME280;19751;40.274;18.268;2024-01-27T08:03:46;102116.19;;;11.26;100.00
33404;BME280;19751;40.274;18.268;2024-01-27T08:06:16;102114.03;;;11.29;100.00
33404;BME280;19751;40.274;18.268;2024-01-27T08:08:48;102124.31;;;11.34;100.00
33404;BME280;19751;40.274;18.268;2024-01-27T08:11:15;102116.91;;;11.36;100.00
33404;BME280;19751;40.274;18.268;2024-01-27T08:13:41;102114.06;;;11.37;100.00
33404;BME280;19751;40.274;18.268;2024-01-27T08:16:08;102109.34;;;11.39;100.00
33404;BME280;19751;40.274;18.268;2024-01-27T08:18:40;102107.81;;;11.37;100.00
33404;BME280;19751;40.274;18.268;2024-01-27T08:21:08;102105.66;;;11.40;100.00
33404;BME280;19751;40.274;18.268;2024-01-27T08:23:33;102109.69;;;11.44;100.00
33404;BME280;19751;40.274;18.268;2024-01-27T08:25:59;102118.00;;;11.51;100.00
33404;BME280;19751;40.274;18.268;2024-01-27T08:28:25;102119.88;;;11.59;100.00
33404;BME280;19751;40.274;18.268;2024-01-27T08:30:50;102129.19;;;11.64;100.00
33404;BME280;19751;40.274;18.268;2024-01-27T08:33:16;102125.84;;;11.70;100.00
33404;BME280;19751;40.274;18.268;2024-01-27T08:35:41;102113.72;;;11.75;100.00
33404;BME280;19751;40.274;18.268;2024-01-27T08:38:07;102121.31;;;11.79;100.00
33404;BME280;19751;40.274;18.268;2024-01-27T08:40:35;102134.88;;;11.87;100.00
33404;BME280;19751;40.274;18.268;2024-01-27T08:43:01;102121.72;;;11.92;100.00
33404;BME280;19751;40.274;18.268;2024-01-27T08:45:27;102119.72;;;11.94;100.00
33404;BME280;19751;40.274;18.268;2024-01-27T08:47:53;102122.06;;;11.98;100.00
33404;BME280;19751;40.274;18.268;2024-01-27T08:50:18;102125.47;;;12.00;100.00
33404;BME280;19751;40.274;18.268;2024-01-27T08:52:44;102126.81;;;12.04;100.00
33404;BME280;19751;40.274;18.268;2024-01-27T08:55:11;102124.78;;;12.06;100.00
33404;BME280;19751;40.274;18.268;2024-01-27T08:57:37;102140.50;;;12.10;100.00
33404;BME280;19751;40.274;18.268;2024-01-27T09:00:03;102138.31;;;12.14;100.00
33404;BME280;19751;40.274;18.268;2024-01-27T09:02:29;102140.50;;;12.18;100.00
33404;BME280;19751;40.274;18.268;2024-01-27T09:04:55;102136.31;;;12.24;100.00
33404;BME280;19751;40.274;18.268;2024-01-27T09:07:21;102149.84;;;12.32;100.00
33404;BME280;19751;40.274;18.268;2024-01-27T09:09:47;102149.16;;;12.38;100.00
33404;BME280;19751;40.274;18.268;2024-01-27T09:12:12;102145.81;;;12.44;100.00
33404;BME280;19751;40.274;18.268;2024-01-27T09:14:38;102163.72;;;12.54;100.00
33404;BME280;19751;40.274;18.268;2024-01-27T09:17:04;102155.28;;;12.57;100.00
33404;BME280;19751;40.274;18.268;2024-01-27T09:19:29;102155.94;;;12.59;100.00
33404;BME280;19751;40.274;18.268;2024-01-27T09:21:55;102151.22;;;12.61;100.00
33404;BME280;19751;40.274;18.268;2024-01-27T09:24:21;102160.69;;;12.65;100.00
33404;BME280;19751;40.274;18.268;2024-01-27T09:26:47;102169.13;;;12.70;100.00
33404;BME280;19751;40.274;18.268;2024-01-27T09:29:13;102166.75;;;12.75;100.00
33404;BME280;19751;40.274;18.268;2024-01-27T09:31:39;102173.19;;;12.82;100.00
33404;BME280;19751;40.274;18.268;2024-01-27T09:34:05;102173.00;;;12.92;100.00
33404;BME280;19751;40.274;18.268;2024-01-27T09:36:30;102158.81;;;12.98;100.00
33404;BME280;19751;40.274;18.268;2024-01-27T09:38:56;102157.47;;;13.02;100.00
33404;BME280;19751;40.274;18.268;2024-01-27T09:41:22;102174.16;;;13.06;100.00
33404;BME280;19751;40.274;18.268;2024-01-27T09:43:47;102173.84;;;13.09;100.00
33404;BME280;19751;40.274;18.268;2024-01-27T09:46:14;102173.81;;;13.17;100.00
33404;BME280;19751;40.274;18.268;2024-01-27T09:48:41;102169.09;;;13.19;100.00
33404;BME280;19751;40.274;18.268;2024-01-27T09:51:09;102168.41;;;13.17;100.00
33404;BME280;19751;40.274;18.268;2024-01-27T09:53:36;102181.09;;;13.16;100.00
33404;BME280;19751;40.274;18.268;2024-01-27T09:56:02;102169.75;;;13.21;100.00
33404;BME280;19751;40.274;18.268;2024-01-27T09:58:29;102171.44;;;13.22;100.00
33404;BME280;19751;40.274;18.268;2024-01-27T10:01:00;102170.09;;;13.26;100.00
33404;BME280;19751;40.274;18.268;2024-01-27T10:03:27;102180.25;;;13.32;100.00
33404;BME280;19751;40.274;18.268;2024-01-27T10:05:54;102175.69;;;13.33;100.00
33404;BME280;19751;40.274;18.268;2024-01-27T10:08:21;102176.22;;;13.28;100.00
33404;BME280;19751;40.274;18.268;2024-01-27T10:10:47;102175.53;;;13.26;100.00
33404;BME280;19751;40.274;18.268;2024-01-27T10:13:14;102170.78;;;13.28;100.00
33404;BME280;19751;40.274;18.268;2024-01-27T10:15:43;102174.00;;;13.32;100.00
33404;BME280;19751;40.274;18.268;2024-01-27T10:18:09;102185.47;;;13.34;100.00
33404;BME280;19751;40.274;18.268;2024-01-27T10:20:39;102190.22;;;13.40;100.00
33404;BME280;19751;40.274;18.268;2024-01-27T10:23:12;102187.66;;;13.47;100.00
33404;BME280;19751;40.274;18.268;2024-01-27T10:25:39;102192.53;;;13.51;100.00
33404;BME280;19751;40.274;18.268;2024-01-27T10:28:06;102194.72;;;13.56;100.00
33404;BME280;19751;40.274;18.268;2024-01-27T10:30:34;102196.09;;;13.52;100.00
33404;BME280;19751;40.274;18.268;2024-01-27T10:32:59;102191.88;;;13.49;100.00
33404;BME280;19751;40.274;18.268;2024-01-27T10:35:25;102193.06;;;13.47;100.00
33404;BME280;19751;40.274;18.268;2024-01-27T10:37:53;102198.81;;;13.43;100.00
33404;BME280;19751;40.274;18.268;2024-01-27T10:40:20;102182.56;;;13.43;100.00
33404;BME280;19751;40.274;18.268;2024-01-27T10:42:46;102178.88;;;13.45;100.00
33404;BME280;19751;40.274;18.268;2024-01-27T10:45:12;102185.97;;;13.46;100.00
33404;BME280;19751;40.274;18.268;2024-01-27T10:47:39;102172.25;;;13.47;100.00
33404;BME280;19751;40.274;18.268;2024-01-27T10:50:08;102169.38;;;13.49;100.00
33404;BME280;19751;40.274;18.268;2024-01-27T10:52:38;102171.41;;;13.47;100.00
33404;BME280;19751;40.274;18.268;2024-01-27T10:55:07;102166.50;;;13.50;100.00
33404;BME280;19751;40.274;18.268;2024-01-27T10:57:37;102156.16;;;13.54;100.00
33404;BME280;19751;40.274;18.268;2024-01-27T11:00:06;102165.28;;;13.61;100.00
33404;BME280;19751;40.274;18.268;2024-01-27T11:02:35;102155.63;;;13.66;100.00
33404;BME280;19751;40.274;18.268;2024-01-27T11:05:05;102152.72;;;13.68;100.00
33404;BME280;19751;40.274;18.268;2024-01-27T11:07:33;102164.06;;;13.72;100.00
33404;BME280;19751;40.274;18.268;2024-01-27T11:10:00;102157.59;;;13.73;100.00
33404;BME280;19751;40.274;18.268;2024-01-27T11:12:26;102154.41;;;13.77;100.00
33404;BME280;19751;40.274;18.268;2024-01-27T11:14:53;102163.72;;;13.75;100.00
33404;BME280;19751;40.274;18.268;2024-01-27T11:17:19;102155.41;;;13.76;100.00
33404;BME280;19751;40.274;18.268;2024-01-27T11:19:45;102148.78;;;13.79;100.00
33404;BME280;19751;40.274;18.268;2024-01-27T11:22:38;102164.69;;;13.82;100.00
33404;BME280;19751;40.274;18.268;2024-01-27T11:25:17;102145.06;;;13.80;100.00
33404;BME280;19751;40.274;18.268;2024-01-27T11:27:45;102155.25;;;13.78;100.00
33404;BME280;19751;40.274;18.268;2024-01-27T11:30:26;102139.28;;;13.83;100.00
33404;BME280;19751;40.274;18.268;2024-01-27T11:32:54;102138.28;;;13.84;100.00
33404;BME280;19751;40.274;18.268;2024-01-27T11:35:29;102147.22;;;13.84;100.00
33404;BME280;19751;40.274;18.268;2024-01-27T11:37:55;102154.72;;;13.82;100.00
33404;BME280;19751;40.274;18.268;2024-01-27T11:40:20;102142.66;;;13.85;100.00
33404;BME280;19751;40.274;18.268;2024-01-27T11:42:56;102135.72;;;13.90;100.00
33404;BME280;19751;40.274;18.268;2024-01-27T11:45:22;102143.50;;;13.93;100.00
33404;BME280;19751;40.274;18.268;2024-01-27T11:47:48;102128.72;;;13.96;100.00
33404;BME280;19751;40.274;18.268;2024-01-27T11:50:17;102140.41;;;13.97;100.00
33404;BME280;19751;40.274;18.268;2024-01-27T11:52:42;102122.13;;;13.99;100.00
33404;BME280;19751;40.274;18.268;2024-01-27T11:55:08;102116.84;;;13.97;100.00
33404;BME280;19751;40.274;18.268;2024-01-27T11:57:34;102130.41;;;13.97;100.00
33404;BME280;19751;40.274;18.268;2024-01-27T11:59:59;102136.50;;;13.99;100.00
33404;BME280;19751;40.274;18.268;2024-01-27T12:02:25;102123.81;;;14.00;100.00
33404;BME280;19751;40.274;18.268;2024-01-27T12:04:51;102131.56;;;14.03;100.00
33404;BME280;19751;40.274;18.268;2024-01-27T12:07:17;102115.31;;;14.03;100.00
33404;BME280;19751;40.274;18.268;2024-01-27T12:09:48;102125.13;;;14.04;100.00
33404;BME280;19751;40.274;18.268;2024-01-27T12:12:14;102123.59;;;14.01;100.00
33404;BME280;19751;40.274;18.268;2024-01-27T12:14:46;102135.47;;;14.00;100.00
33404;BME280;19751;40.274;18.268;2024-01-27T12:17:12;102130.91;;;14.01;100.00
33404;BME280;19751;40.274;18.268;2024-01-27T12:19:38;102124.47;;;14.02;100.00
33404;BME280;19751;40.274;18.268;2024-01-27T12:22:05;102111.94;;;14.01;100.00
33404;BME280;19751;40.274;18.268;2024-01-27T12:24:46;102120.44;;;13.98;100.00
33404;BME280;19751;40.274;18.268;2024-01-27T12:27:11;102128.72;;;13.96;100.00
33404;BME280;19751;40.274;18.268;2024-01-27T12:29:37;102118.22;;;13.93;100.00
33404;BME280;19751;40.274;18.268;2024-01-27T12:32:03;102123.84;;;13.91;100.00